Time;durP1;ratioP1;P1;durP2;ratioP2;P2;SDS_P1;SDS_P2;PMS_P1;PMS_P2;Temp;Humidity;BMP_temperature;BMP_pressure;BME280_temperature;BME280_humidity;BME280_pressure;Samples;Min_cycle;Max_cycle;Signal;HPM_P1;HPM_P2
2023/09/04 00:00:19;;;;;;;6.55;4.30;;;;;;;;;;7371426;19;20018;-66
2023/09/04 00:02:46;;;;;;;6.53;3.92;;;;;;;;;;7371379;19;20005;-66
2023/09/04 00:05:11;;;;;;;6.50;4.13;;;;;;;;;;7366482;19;20032;-67
2023/09/04 00:07:37;;;;;;;8.02;4.22;;;;;;;;;;7392695;19;20370;-66
2023/09/04 00:10:03;;;;;;;7.28;4.15;;;;;;;;;;7370666;19;20007;-66
2023/09/04 00:12:29;;;;;;;6.95;4.18;;;;;;;;;;7369743;19;20015;-66
2023/09/04 00:14:54;;;;;;;5.93;3.88;;;;;;;;;;7368752;19;20468;-66
2023/09/04 00:17:20;;;;;;;7.05;4.22;;;;;;;;;;7369585;19;20050;-65
2023/09/04 00:19:46;;;;;;;6.80;4.28;;;;;;;;;;7391957;19;20006;-66
2023/09/04 00:22:12;;;;;;;6.28;4.15;;;;;;;;;;7369965;19;20011;-66
2023/09/04 00:24:37;;;;;;;6.95;4.40;;;;;;;;;;7368263;19;20355;-66
2023/09/04 00:27:03;;;;;;;6.70;4.13;;;;;;;;;;7368925;19;20071;-65
2023/09/04 00:29:28;;;;;;;7.05;4.40;;;;;;;;;;7371103;19;20040;-65
2023/09/04 00:31:53;;;;;;;8.05;4.25;;;;;;;;;;7391702;19;20019;-66
2023/09/04 00:34:19;;;;;;;5.85;4.13;;;;;;;;;;7368628;19;20002;-65
2023/09/04 00:36:44;;;;;;;6.95;4.50;;;;;;;;;;7369321;19;20017;-66
2023/09/04 00:39:09;;;;;;;7.72;4.45;;;;;;;;;;7366288;19;20137;-66
2023/09/04 00:41:35;;;;;;;6.30;3.92;;;;;;;;;;7369344;19;20021;-66
2023/09/04 00:44:00;;;;;;;8.77;4.55;;;;;;;;;;7389755;19;20002;-67
2023/09/04 00:46:25;;;;;;;6.55;4.00;;;;;;;;;;7367577;19;20519;-68
2023/09/04 00:48:51;;;;;;;6.93;4.32;;;;;;;;;;7368493;19;20070;-67
2023/09/04 00:51:17;;;;;;;7.43;4.93;;;;;;;;;;7368395;19;20074;-67
2023/09/04 00:53:42;;;;;;;7.85;4.03;;;;;;;;;;7368111;19;20044;-67
2023/09/04 00:56:10;;;;;;;6.78;3.85;;;;;;;;;;7368486;19;19999;-67
2023/09/04 00:58:36;;;;;;;6.22;4.07;;;;;;;;;;7391250;19;20023;-67
2023/09/04 01:01:02;;;;;;;6.30;3.78;;;;;;;;;;7370170;19;20017;-67
2023/09/04 01:03:30;;;;;;;6.57;4.20;;;;;;;;;;7368246;19;20014;-67
2023/09/04 01:05:55;;;;;;;6.53;4.10;;;;;;;;;;7367215;19;20009;-67
2023/09/04 01:08:21;;;;;;;7.03;4.50;;;;;;;;;;7367200;19;20058;-68
2023/09/04 01:11:04;;;;;;;7.82;4.65;;;;;;;;;;7389271;19;20003;-68
2023/09/04 01:13:38;;;;;;;8.27;4.50;;;;;;;;;;7367752;19;20006;-67
2023/09/04 01:16:05;;;;;;;6.85;4.38;;;;;;;;;;7365626;19;20002;-66
2023/09/04 01:18:31;;;;;;;6.57;4.05;;;;;;;;;;7368115;19;20016;-65
2023/09/04 01:21:04;;;;;;;6.03;4.30;;;;;;;;;;7367204;19;20580;-67
2023/09/04 01:23:30;;;;;;;8.63;4.38;;;;;;;;;;7364765;19;20006;-67
2023/09/04 01:26:15;;;;;;;8.55;4.35;;;;;;;;;;7384506;19;20003;-67
2023/09/04 01:28:56;;;;;;;8.10;4.22;;;;;;;;;;7364155;19;20028;-67
2023/09/04 01:31:35;;;;;;;8.13;4.40;;;;;;;;;;7363589;19;20488;-67
2023/09/04 01:34:13;;;;;;;6.85;4.50;;;;;;;;;;7363870;19;20030;-67
2023/09/04 01:36:41;;;;;;;6.32;4.15;;;;;;;;;;7363010;19;20009;-67
2023/09/04 01:39:06;;;;;;;6.72;4.30;;;;;;;;;;7362384;19;20487;-66
2023/09/04 01:41:32;;;;;;;8.38;4.80;;;;;;;;;;7364119;19;20035;-67
2023/09/04 01:43:57;;;;;;;6.93;4.57;;;;;;;;;;7385202;19;20010;-65
2023/09/04 01:46:23;;;;;;;7.13;4.88;;;;;;;;;;7365008;19;20356;-66
2023/09/04 01:48:51;;;;;;;7.22;4.10;;;;;;;;;;7367192;19;20638;-66
2023/09/04 01:51:16;;;;;;;6.68;4.40;;;;;;;;;;7363330;19;20485;-66
2023/09/04 01:53:42;;;;;;;6.65;4.25;;;;;;;;;;7366922;19;20030;-67
2023/09/04 01:56:07;;;;;;;7.88;4.63;;;;;;;;;;7365821;19;20010;-67
2023/09/04 01:58:33;;;;;;;7.20;4.68;;;;;;;;;;7388486;19;20520;-66
2023/09/04 02:00:58;;;;;;;8.05;4.43;;;;;;;;;;7367323;19;20007;-67
2023/09/04 02:03:23;;;;;;;6.18;4.30;;;;;;;;;;7366008;19;20344;-67
2023/09/04 02:05:49;;;;;;;7.50;5.05;;;;;;;;;;7366340;19;20009;-66
2023/09/04 02:08:14;;;;;;;10.75;4.85;;;;;;;;;;7366611;19;20002;-66
2023/09/04 02:10:39;;;;;;;7.65;5.00;;;;;;;;;;7388163;19;19995;-65
2023/09/04 02:13:05;;;;;;;7.47;4.68;;;;;;;;;;7364978;19;20412;-65
2023/09/04 02:15:30;;;;;;;7.88;5.05;;;;;;;;;;7364643;19;20410;-66
2023/09/04 02:17:55;;;;;;;7.72;4.75;;;;;;;;;;7366250;19;20021;-66
2023/09/04 02:20:21;;;;;;;7.43;5.22;;;;;;;;;;7365876;19;20492;-67
2023/09/04 02:22:47;;;;;;;7.55;4.93;;;;;;;;;;7388607;19;19998;-66
2023/09/04 02:25:12;;;;;;;8.35;5.35;;;;;;;;;;7363440;19;20081;-67
2023/09/04 02:27:38;;;;;;;8.63;5.13;;;;;;;;;;7365237;19;20038;-66
2023/09/04 02:30:07;;;;;;;7.93;5.07;;;;;;;;;;7365317;19;20464;-67
2023/09/04 02:32:33;;;;;;;6.00;4.55;;;;;;;;;;7369360;19;20095;-66
2023/09/04 02:34:59;;;;;;;6.82;4.93;;;;;;;;;;7387250;19;20040;-67
2023/09/04 02:37:24;;;;;;;7.05;4.68;;;;;;;;;;7367878;19;20010;-67
2023/09/04 02:39:49;;;;;;;8.65;4.78;;;;;;;;;;7366158;19;20011;-67
2023/09/04 02:42:15;;;;;;;10.38;5.07;;;;;;;;;;7366153;19;20006;-67
2023/09/04 02:44:40;;;;;;;9.88;5.28;;;;;;;;;;7363277;19;19999;-67
2023/09/04 02:47:05;;;;;;;12.10;7.47;;;;;;;;;;7364777;19;19994;-67
2023/09/04 02:49:30;;;;;;;9.95;5.70;;;;;;;;;;7387789;19;20446;-66
2023/09/04 02:51:56;;;;;;;7.57;4.95;;;;;;;;;;7366277;19;20953;-67
2023/09/04 02:54:21;;;;;;;8.43;5.57;;;;;;;;;;7365016;19;20068;-67
2023/09/04 02:56:46;;;;;;;8.73;5.65;;;;;;;;;;7364289;19;20012;-67
2023/09/04 02:59:12;;;;;;;9.10;5.30;;;;;;;;;;7366077;19;20026;-67
2023/09/04 03:01:37;;;;;;;10.13;5.90;;;;;;;;;;7388984;19;20010;-66
2023/09/04 03:04:02;;;;;;;7.63;5.38;;;;;;;;;;7372711;19;20002;-66
2023/09/04 03:06:28;;;;;;;8.13;5.40;;;;;;;;;;7373194;19;20025;-67
2023/09/04 03:08:53;;;;;;;8.52;5.45;;;;;;;;;;7372783;19;20524;-67
2023/09/04 03:11:19;;;;;;;11.77;5.18;;;;;;;;;;7373942;19;20002;-67
2023/09/04 03:13:45;;;;;;;10.90;5.15;;;;;;;;;;7394869;19;20007;-67
2023/09/04 03:16:10;;;;;;;8.07;5.53;;;;;;;;;;7374711;19;20101;-66
2023/09/04 03:18:35;;;;;;;8.10;5.47;;;;;;;;;;7377038;19;20073;-66
2023/09/04 03:21:02;;;;;;;9.40;5.30;;;;;;;;;;7375981;19;20019;-66
2023/09/04 03:23:27;;;;;;;8.95;5.63;;;;;;;;;;7373544;19;20002;-67
2023/09/04 03:25:53;;;;;;;11.02;5.88;;;;;;;;;;7393972;19;20001;-66
2023/09/04 03:28:20;;;;;;;7.93;5.53;;;;;;;;;;7370488;19;20006;-67
2023/09/04 03:30:45;;;;;;;8.75;5.78;;;;;;;;;;7370850;19;20008;-66
2023/09/04 03:33:11;;;;;;;8.13;5.70;;;;;;;;;;7369635;19;20081;-67
2023/09/04 03:35:36;;;;;;;7.22;5.30;;;;;;;;;;7370312;19;20019;-66
2023/09/04 03:38:01;;;;;;;8.90;5.22;;;;;;;;;;7405750;19;20010;-67
2023/09/04 03:40:29;;;;;;;8.05;5.05;;;;;;;;;;7388946;19;20018;-66
2023/09/04 03:42:55;;;;;;;8.65;5.72;;;;;;;;;;7387045;19;20006;-66
2023/09/04 03:45:20;;;;;;;10.40;5.55;;;;;;;;;;7382506;19;20003;-66
2023/09/04 03:47:47;;;;;;;8.30;5.43;;;;;;;;;;7371327;19;20006;-66
2023/09/04 03:50:12;;;;;;;7.80;5.55;;;;;;;;;;7367713;19;20250;-66
2023/09/04 03:52:39;;;;;;;7.85;5.20;;;;;;;;;;7388739;19;20082;-66
2023/09/04 03:55:09;;;;;;;8.93;5.85;;;;;;;;;;7363811;19;20002;-66
2023/09/04 03:57:37;;;;;;;8.60;5.43;;;;;;;;;;7367538;19;20006;-66
2023/09/04 04:00:14;;;;;;;6.55;4.72;;;;;;;;;;7366759;19;20002;-65
2023/09/04 04:02:39;;;;;;;8.07;5.25;;;;;;;;;;7367730;19;20017;-67
2023/09/04 04:05:06;;;;;;;8.07;4.90;;;;;;;;;;7365784;19;20006;-68
2023/09/04 04:07:31;;;;;;;6.43;4.60;;;;;;;;;;7390229;19;20367;-67
2023/09/04 04:09:57;;;;;;;7.78;5.13;;;;;;;;;;7368865;19;20006;-67
2023/09/04 04:12:24;;;;;;;7.60;4.72;;;;;;;;;;7369025;19;19999;-66
2023/09/04 04:14:53;;;;;;;10.48;5.85;;;;;;;;;;7365146;19;20010;-66
2023/09/04 04:17:18;;;;;;;13.00;5.10;;;;;;;;;;7368286;19;20015;-66
2023/09/04 04:19:44;;;;;;;9.73;5.53;;;;;;;;;;7390245;19;20003;-67
2023/09/04 04:22:09;;;;;;;7.88;5.18;;;;;;;;;;7367832;19;20002;-66
2023/09/04 04:24:35;;;;;;;6.88;4.85;;;;;;;;;;7367298;19;20011;-67
2023/09/04 04:27:01;;;;;;;9.15;4.80;;;;;;;;;;7367160;19;20423;-67
2023/09/04 04:29:26;;;;;;;10.02;4.60;;;;;;;;;;7367609;19;20014;-67
2023/09/04 04:31:52;;;;;;;7.20;5.00;;;;;;;;;;7389874;19;20002;-68
2023/09/04 04:34:17;;;;;;;7.05;4.55;;;;;;;;;;7367908;19;20045;-67
2023/09/04 04:36:42;;;;;;;9.02;5.18;;;;;;;;;;7368331;19;20056;-67
2023/09/04 04:39:08;;;;;;;9.98;4.70;;;;;;;;;;7362153;19;20051;-67
2023/09/04 04:41:33;;;;;;;7.68;4.68;;;;;;;;;;7364635;19;20429;-67
2023/09/04 04:43:59;;;;;;;8.98;4.95;;;;;;;;;;7379573;19;20042;-67
2023/09/04 04:46:24;;;;;;;8.85;4.53;;;;;;;;;;7366230;19;20011;-67
2023/09/04 04:48:49;;;;;;;7.50;4.50;;;;;;;;;;7363872;19;20002;-66
2023/09/04 04:51:15;;;;;;;10.00;4.55;;;;;;;;;;7348484;19;20404;-67
2023/09/04 04:53:40;;;;;;;7.65;4.72;;;;;;;;;;7355091;19;20118;-67
2023/09/04 04:56:11;;;;;;;15.90;5.18;;;;;;;;;;7365815;19;20040;-67
2023/09/04 04:58:37;;;;;;;9.32;4.88;;;;;;;;;;7388462;19;20003;-67
2023/09/04 05:01:06;;;;;;;8.73;4.25;;;;;;;;;;7363861;19;20021;-67
2023/09/04 05:03:32;;;;;;;8.60;4.22;;;;;;;;;;7364966;19;19999;-67
2023/09/04 05:05:57;;;;;;;7.22;4.43;;;;;;;;;;7366021;19;20070;-66
2023/09/04 05:08:22;;;;;;;8.93;4.22;;;;;;;;;;7365934;19;20788;-66
2023/09/04 05:11:06;;;;;;;5.63;4.13;;;;;;;;;;7387397;19;20392;-66
2023/09/04 05:13:32;;;;;;;6.70;4.03;;;;;;;;;;7367149;19;19994;-67
2023/09/04 05:16:03;;;;;;;6.30;3.63;;;;;;;;;;7364764;19;20092;-66
2023/09/04 05:18:29;;;;;;;6.60;3.78;;;;;;;;;;7368991;19;20077;-66
2023/09/04 05:20:54;;;;;;;8.10;3.92;;;;;;;;;;7367669;19;20034;-66
2023/09/04 05:23:20;;;;;;;7.82;3.47;;;;;;;;;;7367804;19;20033;-66
2023/09/04 05:25:52;;;;;;;6.30;3.78;;;;;;;;;;7385931;19;19998;-67
2023/09/04 05:28:18;;;;;;;7.45;3.30;;;;;;;;;;7367947;19;20006;-66
2023/09/04 05:30:44;;;;;;;10.05;3.90;;;;;;;;;;7372251;19;20010;-66
2023/09/04 05:33:09;;;;;;;6.30;3.65;;;;;;;;;;7366302;19;20011;-66
2023/09/04 05:35:35;;;;;;;6.28;3.60;;;;;;;;;;7365226;19;20070;-66
2023/09/04 05:38:00;;;;;;;5.78;3.60;;;;;;;;;;7388429;19;20438;-66
2023/09/04 05:40:26;;;;;;;6.07;3.50;;;;;;;;;;7366821;19;20078;-66
2023/09/04 05:42:51;;;;;;;4.68;3.28;;;;;;;;;;7367618;19;20009;-66
2023/09/04 05:45:17;;;;;;;7.15;3.47;;;;;;;;;;7364083;19;20006;-66
2023/09/04 05:47:43;;;;;;;5.70;3.17;;;;;;;;;;7367627;19;20014;-67
2023/09/04 05:50:09;;;;;;;6.10;3.20;;;;;;;;;;7366974;19;20027;-67
2023/09/04 05:52:36;;;;;;;9.43;3.55;;;;;;;;;;7389478;19;20019;-67
2023/09/04 05:55:01;;;;;;;5.22;3.42;;;;;;;;;;7363801;19;20066;-67
2023/09/04 05:57:26;;;;;;;5.78;3.13;;;;;;;;;;7366067;19;20494;-66
2023/09/04 05:59:52;;;;;;;6.85;3.13;;;;;;;;;;7366343;19;20010;-67
2023/09/04 06:02:17;;;;;;;4.82;3.28;;;;;;;;;;7366157;19;19998;-67
2023/09/04 06:04:43;;;;;;;5.10;2.95;;;;;;;;;;7384257;19;20005;-66
2023/09/04 06:07:10;;;;;;;4.85;3.15;;;;;;;;;;7365952;19;20560;-67
2023/09/04 06:09:36;;;;;;;5.85;3.30;;;;;;;;;;7365940;19;20010;-67
2023/09/04 06:12:02;;;;;;;6.57;3.50;;;;;;;;;;7367124;19;20006;-65
2023/09/04 06:14:28;;;;;;;4.97;3.30;;;;;;;;;;7364734;19;20021;-66
2023/09/04 06:16:53;;;;;;;5.93;3.17;;;;;;;;;;7386693;19;20038;-67
2023/09/04 06:19:18;;;;;;;4.40;3.00;;;;;;;;;;7365580;19;20018;-67
2023/09/04 06:21:44;;;;;;;7.13;3.47;;;;;;;;;;7364118;19;20002;-66
2023/09/04 06:24:09;;;;;;;6.53;3.08;;;;;;;;;;7363830;19;20018;-66
2023/09/04 06:26:34;;;;;;;7.32;3.53;;;;;;;;;;7364137;19;20006;-66
2023/09/04 06:29:00;;;;;;;5.07;3.17;;;;;;;;;;7386790;19;20002;-66
2023/09/04 06:31:25;;;;;;;5.95;3.03;;;;;;;;;;7363577;19;20532;-65
2023/09/04 06:33:51;;;;;;;6.63;3.22;;;;;;;;;;7362958;19;20021;-66
2023/09/04 06:36:16;;;;;;;6.97;3.30;;;;;;;;;;7367134;19;20046;-66
2023/09/04 06:38:41;;;;;;;5.97;3.13;;;;;;;;;;7372007;19;20009;-66
2023/09/04 06:41:07;;;;;;;5.20;3.25;;;;;;;;;;7369199;19;20689;-66
2023/09/04 06:43:32;;;;;;;5.13;2.85;;;;;;;;;;7385515;19;19999;-66
2023/09/04 06:45:58;;;;;;;5.57;2.97;;;;;;;;;;7367427;19;20007;-68
2023/09/04 06:48:23;;;;;;;5.70;2.70;;;;;;;;;;7372356;19;20010;-67
2023/09/04 06:50:52;;;;;;;7.65;3.15;;;;;;;;;;7371816;19;20006;-67
2023/09/04 06:53:18;;;;;;;5.88;3.10;;;;;;;;;;7371471;19;20010;-66
2023/09/04 06:55:43;;;;;;;6.68;3.13;;;;;;;;;;7389785;19;20030;-67
2023/09/04 06:58:09;;;;;;;6.28;3.08;;;;;;;;;;7360264;19;20015;-67
2023/09/04 07:00:35;;;;;;;7.53;3.22;;;;;;;;;;7371237;19;20775;-66
2023/09/04 07:03:00;;;;;;;6.45;3.10;;;;;;;;;;7371462;19;20011;-66
2023/09/04 07:05:25;;;;;;;5.55;2.63;;;;;;;;;;7368813;19;20517;-66
2023/09/04 07:07:51;;;;;;;4.75;2.78;;;;;;;;;;7392897;19;19999;-67
2023/09/04 07:10:16;;;;;;;6.50;3.10;;;;;;;;;;7372049;19;20018;-65
2023/09/04 07:12:41;;;;;;;5.35;2.78;;;;;;;;;;7371647;19;20006;-65
2023/09/04 07:15:07;;;;;;;4.78;3.05;;;;;;;;;;7369082;19;20007;-65
2023/09/04 07:17:32;;;;;;;6.03;3.30;;;;;;;;;;7371523;19;20073;-67
2023/09/04 07:19:58;;;;;;;4.68;2.90;;;;;;;;;;7393823;19;20014;-67
2023/09/04 07:22:24;;;;;;;6.43;3.20;;;;;;;;;;7372630;19;20007;-67
2023/09/04 07:24:50;;;;;;;4.18;2.85;;;;;;;;;;7367901;19;20011;-67
2023/09/04 07:27:15;;;;;;;7.60;3.20;;;;;;;;;;7371226;19;20014;-66
2023/09/04 07:29:41;;;;;;;7.25;3.20;;;;;;;;;;7370058;19;20015;-67
2023/09/04 07:32:06;;;;;;;6.28;2.70;;;;;;;;;;7371670;19;20622;-67
2023/09/04 07:34:32;;;;;;;6.43;2.85;;;;;;;;;;7391299;19;20002;-67
2023/09/04 07:36:57;;;;;;;4.93;2.92;;;;;;;;;;7369769;19;20055;-67
2023/09/04 07:39:22;;;;;;;6.93;3.10;;;;;;;;;;7369904;19;20006;-67
2023/09/04 07:41:48;;;;;;;4.97;2.80;;;;;;;;;;7373292;19;20017;-67
2023/09/04 07:44:13;;;;;;;6.55;2.80;;;;;;;;;;7371466;19;20493;-67
2023/09/04 07:46:40;;;;;;;5.03;2.50;;;;;;;;;;7392720;19;19999;-67
2023/09/04 07:49:05;;;;;;;5.95;2.70;;;;;;;;;;7370015;19;20002;-67
2023/09/04 07:51:30;;;;;;;5.72;2.70;;;;;;;;;;7370103;19;20465;-66
2023/09/04 07:53:56;;;;;;;4.68;2.75;;;;;;;;;;7370219;19;20013;-67
2023/09/04 07:56:22;;;;;;;4.60;2.72;;;;;;;;;;7372915;19;20011;-67
2023/09/04 07:58:48;;;;;;;4.30;2.53;;;;;;;;;;7393294;19;20010;-67
2023/09/04 08:01:13;;;;;;;3.95;2.40;;;;;;;;;;7369683;19;20060;-66
2023/09/04 08:03:40;;;;;;;6.78;2.45;;;;;;;;;;7364695;19;20074;-67
2023/09/04 08:06:05;;;;;;;5.93;2.50;;;;;;;;;;7367258;19;20021;-67
2023/09/04 08:08:31;;;;;;;4.68;2.35;;;;;;;;;;7339518;19;20007;-67
2023/09/04 08:10:56;;;;;;;5.65;2.72;;;;;;;;;;7390356;19;20012;-67
2023/09/04 08:13:22;;;;;;;4.20;2.85;;;;;;;;;;7367367;19;20093;-68
2023/09/04 08:15:47;;;;;;;5.65;2.58;;;;;;;;;;7367157;19;20041;-67
2023/09/04 08:18:13;;;;;;;4.95;2.58;;;;;;;;;;7368608;19;20017;-67
2023/09/04 08:20:39;;;;;;;5.22;2.45;;;;;;;;;;7369466;19;20538;-67
2023/09/04 08:23:06;;;;;;;4.57;2.60;;;;;;;;;;7367462;19;20014;-67
2023/09/04 08:25:32;;;;;;;4.75;2.60;;;;;;;;;;7387397;19;20026;-66
2023/09/04 08:27:58;;;;;;;6.80;2.78;;;;;;;;;;7368385;19;20341;-67
2023/09/04 08:30:23;;;;;;;4.80;2.55;;;;;;;;;;7366773;19;20013;-67
2023/09/04 08:32:48;;;;;;;4.95;2.60;;;;;;;;;;7365959;19;20018;-66
2023/09/04 08:35:15;;;;;;;4.05;2.25;;;;;;;;;;7363923;19;20014;-65
2023/09/04 08:37:40;;;;;;;4.85;2.67;;;;;;;;;;7390012;19;20010;-66
2023/09/04 08:40:06;;;;;;;3.33;2.38;;;;;;;;;;7367891;19;20006;-68
2023/09/04 08:42:32;;;;;;;3.30;2.40;;;;;;;;;;7345222;19;20014;-67
2023/09/04 08:44:58;;;;;;;4.80;2.30;;;;;;;;;;7364393;19;20014;-67
2023/09/04 08:47:24;;;;;;;5.13;2.67;;;;;;;;;;7345930;19;20075;-67
2023/09/04 08:49:51;;;;;;;5.40;2.40;;;;;;;;;;7377208;19;20040;-66
2023/09/04 08:52:17;;;;;;;4.13;2.40;;;;;;;;;;7354716;19;20024;-66
2023/09/04 08:54:42;;;;;;;4.95;2.85;;;;;;;;;;7365955;19;20007;-66
2023/09/04 08:57:08;;;;;;;6.20;2.70;;;;;;;;;;7366113;19;20094;-67
2023/09/04 08:59:34;;;;;;;3.75;2.17;;;;;;;;;;7369985;19;20531;-67
2023/09/04 09:02:04;;;;;;;5.95;2.70;;;;;;;;;;7406854;19;19999;-66
2023/09/04 09:04:30;;;;;;;3.15;2.20;;;;;;;;;;7379889;19;20014;-67
2023/09/04 09:06:57;;;;;;;5.05;2.40;;;;;;;;;;7379112;19;20082;-66
2023/09/04 09:09:23;;;;;;;4.50;2.30;;;;;;;;;;7375558;19;20023;-66
2023/09/04 09:11:54;;;;;;;4.15;2.50;;;;;;;;;;7368788;19;20006;-66
2023/09/04 09:14:20;;;;;;;5.38;2.65;;;;;;;;;;7371073;19;20013;-66
2023/09/04 09:16:45;;;;;;;4.68;2.70;;;;;;;;;;7391108;19;20026;-66
2023/09/04 09:19:13;;;;;;;5.05;2.38;;;;;;;;;;7368262;19;20010;-66
2023/09/04 09:21:38;;;;;;;3.88;2.22;;;;;;;;;;7367965;19;20014;-68
2023/09/04 09:24:13;;;;;;;4.68;2.55;;;;;;;;;;7367488;19;20006;-67
2023/09/04 09:26:41;;;;;;;6.15;2.42;;;;;;;;;;7367225;19;20013;-67
2023/09/04 09:29:08;;;;;;;4.97;2.50;;;;;;;;;;7365779;19;20662;-67
2023/09/04 09:31:36;;;;;;;4.80;2.50;;;;;;;;;;7389101;19;20015;-66
2023/09/04 09:34:03;;;;;;;5.95;2.67;;;;;;;;;;7367048;19;19998;-66
2023/09/04 09:36:28;;;;;;;4.68;3.08;;;;;;;;;;7366828;19;20037;-65
2023/09/04 09:38:54;;;;;;;4.57;2.22;;;;;;;;;;7363080;19;20377;-65
2023/09/04 09:41:20;;;;;;;6.18;2.28;;;;;;;;;;7367250;19;20005;-66
2023/09/04 09:43:45;;;;;;;4.63;2.05;;;;;;;;;;7386935;19;20529;-66
2023/09/04 09:46:16;;;;;;;5.40;2.70;;;;;;;;;;7364924;19;20007;-66
2023/09/04 09:48:42;;;;;;;3.50;2.20;;;;;;;;;;7366454;19;20700;-66
2023/09/04 09:51:10;;;;;;;3.50;2.00;;;;;;;;;;7365664;19;20006;-65
2023/09/04 09:53:57;;;;;;;4.38;2.40;;;;;;;;;;7365074;19;20010;-65
2023/09/04 09:56:23;;;;;;;4.38;2.35;;;;;;;;;;7363308;19;20529;-66
2023/09/04 09:58:49;;;;;;;4.28;2.10;;;;;;;;;;7387904;19;20013;-66
2023/09/04 10:01:16;;;;;;;3.35;2.20;;;;;;;;;;7365640;19;20095;-66
2023/09/04 10:03:43;;;;;;;2.67;1.90;;;;;;;;;;7365108;19;20005;-66
2023/09/04 10:06:14;;;;;;;4.28;2.25;;;;;;;;;;7364675;19;20090;-67
2023/09/04 10:08:40;;;;;;;;;;;;;;;;;;7365561;19;19999;-66
2023/09/04 10:11:09;;;;;;;7.60;2.10;;;;;;;;;;7365127;19;20341;-61
2023/09/04 10:13:42;;;;;;;3.00;1.92;;;;;;;;;;7392904;19;20014;-63
2023/09/04 10:16:14;;;;;;;3.40;2.00;;;;;;;;;;7372400;19;20009;-60
2023/09/04 10:18:43;;;;;;;4.25;2.00;;;;;;;;;;7373454;19;20009;-61
2023/09/04 10:21:14;;;;;;;4.05;2.65;;;;;;;;;;7372876;19;20085;-66
2023/09/04 10:23:53;;;;;;;3.47;2.00;;;;;;;;;;7371833;19;20013;-65
2023/09/04 10:26:35;;;;;;;4.97;2.20;;;;;;;;;;7371379;19;20608;-66
2023/09/04 10:29:10;;;;;;;3.28;2.00;;;;;;;;;;7395634;19;20484;-64
2023/09/04 10:31:37;;;;;;;3.78;2.10;;;;;;;;;;7372849;19;20006;-66
2023/09/04 10:34:03;;;;;;;3.90;1.90;;;;;;;;;;7372033;19;20254;-66
2023/09/04 10:36:30;;;;;;;3.75;2.20;;;;;;;;;;7372077;19;20006;-66
2023/09/04 10:38:57;;;;;;;4.68;1.67;;;;;;;;;;7371770;19;20504;-66
2023/09/04 10:41:23;;;;;;;4.65;1.98;;;;;;;;;;7373480;19;20087;-66
2023/09/04 10:43:48;;;;;;;4.18;2.40;;;;;;;;;;7393774;19;20006;-66
2023/09/04 10:46:14;;;;;;;4.00;2.10;;;;;;;;;;7371429;19;20019;-65
2023/09/04 10:48:47;;;;;;;3.33;2.00;;;;;;;;;;7372916;19;20006;-65
2023/09/04 10:51:30;;;;;;;3.70;2.05;;;;;;;;;;7369820;19;20010;-66
2023/09/04 10:53:57;;;;;;;6.22;2.05;;;;;;;;;;7370246;19;20002;-66
2023/09/04 10:56:22;;;;;;;3.42;1.95;;;;;;;;;;7369251;19;20477;-66
2023/09/04 10:59:02;;;;;;;2.80;1.85;;;;;;;;;;7391603;19;20014;-66
2023/09/04 11:01:36;;;;;;;3.33;2.00;;;;;;;;;;7368252;19;20082;-66
2023/09/04 11:04:03;;;;;;;4.22;2.08;;;;;;;;;;7366659;19;20018;-66
2023/09/04 11:06:29;;;;;;;3.67;1.90;;;;;;;;;;7365777;19;20031;-67
2023/09/04 11:08:54;;;;;;;3.53;2.00;;;;;;;;;;7367539;19;20007;-66
2023/09/04 11:11:25;;;;;;;2.83;1.92;;;;;;;;;;7367068;19;20037;-66
2023/09/04 11:14:06;;;;;;;4.03;1.80;;;;;;;;;;7387716;19;20011;-66
2023/09/04 11:16:44;;;;;;;4.15;2.00;;;;;;;;;;7365526;19;20006;-66
2023/09/04 11:19:15;;;;;;;2.80;1.90;;;;;;;;;;7368766;19;20010;-66
2023/09/04 11:21:42;;;;;;;;;;;;;;;;;;7370436;19;20069;-66
2023/09/04 11:24:07;;;;;;;2.60;1.80;;;;;;;;;;7367586;19;20322;-66
2023/09/04 11:26:33;;;;;;;3.83;2.00;;;;;;;;;;7369806;19;20045;-64
2023/09/04 11:29:00;;;;;;;2.85;1.98;;;;;;;;;;7392172;19;20014;-64
2023/09/04 11:31:27;;;;;;;4.43;1.95;;;;;;;;;;7368712;19;20014;-64
2023/09/04 11:33:53;;;;;;;2.45;1.80;;;;;;;;;;7368434;19;20010;-65
2023/09/04 11:36:18;;;;;;;3.20;1.92;;;;;;;;;;7367140;19;20032;-64
2023/09/04 11:38:43;;;;;;;3.22;1.90;;;;;;;;;;7367545;19;20007;-65
2023/09/04 11:41:19;;;;;;;5.03;2.17;;;;;;;;;;7367526;19;20021;-68
2023/09/04 11:43:45;;;;;;;3.25;2.00;;;;;;;;;;7390742;19;20091;-66
2023/09/04 11:46:11;;;;;;;5.20;2.10;;;;;;;;;;7366366;19;20002;-66
2023/09/04 11:48:38;;;;;;;4.07;1.88;;;;;;;;;;7367822;19;20485;-65
2023/09/04 11:51:04;;;;;;;4.90;2.10;;;;;;;;;;7229417;19;2735573;-65
2023/09/04 11:53:31;;;;;;;3.47;1.95;;;;;;;;;;7370382;19;20259;-67
2023/09/04 11:55:57;;;;;;;4.32;2.13;;;;;;;;;;7391233;19;20002;-65
2023/09/04 11:58:22;;;;;;;4.60;2.13;;;;;;;;;;7367604;19;20504;-65
2023/09/04 12:00:47;;;;;;;3.10;2.00;;;;;;;;;;7369276;19;20098;-65
2023/09/04 12:03:13;;;;;;;4.43;2.00;;;;;;;;;;7369944;19;20017;-65
2023/09/04 12:05:39;;;;;;;6.82;2.30;;;;;;;;;;7367428;19;20004;-65
2023/09/04 12:08:05;;;;;;;3.72;1.90;;;;;;;;;;7370571;19;20062;-66
2023/09/04 12:10:34;;;;;;;5.00;2.30;;;;;;;;;;7391253;19;20513;-65
2023/09/04 12:13:01;;;;;;;3.30;2.10;;;;;;;;;;7368117;19;20014;-65
2023/09/04 12:15:27;;;;;;;3.45;2.00;;;;;;;;;;7366831;19;20089;-65
2023/09/04 12:17:52;;;;;;;3.97;2.10;;;;;;;;;;7369925;19;20014;-66
2023/09/04 12:20:18;;;;;;;3.80;1.90;;;;;;;;;;7368814;19;20006;-66
2023/09/04 12:22:54;;;;;;;3.15;1.92;;;;;;;;;;7390967;19;20023;-66
2023/09/04 12:25:19;;;;;;;9.38;2.30;;;;;;;;;;7365587;19;20067;-65
2023/09/04 12:27:44;;;;;;;4.88;2.13;;;;;;;;;;7368984;19;20011;-66
2023/09/04 12:30:11;;;;;;;5.63;2.22;;;;;;;;;;7368206;19;20070;-66
2023/09/04 12:32:37;;;;;;;3.10;1.80;;;;;;;;;;7368691;19;20006;-65
2023/09/04 12:35:04;;;;;;;3.42;1.90;;;;;;;;;;7374958;19;20007;-66
2023/09/04 12:37:32;;;;;;;3.28;2.00;;;;;;;;;;7390638;19;20002;-65
2023/09/04 12:39:57;;;;;;;3.92;2.08;;;;;;;;;;7369339;19;20047;-64
2023/09/04 12:42:22;;;;;;;3.65;1.90;;;;;;;;;;7368971;19;20382;-65
2023/09/04 12:44:48;;;;;;;4.03;2.22;;;;;;;;;;7369625;19;20014;-65
2023/09/04 12:47:13;;;;;;;6.18;2.17;;;;;;;;;;7371045;19;20055;-66
2023/09/04 12:49:39;;;;;;;2.85;1.88;;;;;;;;;;7390878;19;20003;-66
2023/09/04 12:52:04;;;;;;;3.35;1.98;;;;;;;;;;7368693;19;20010;-66
2023/09/04 12:54:29;;;;;;;2.75;1.90;;;;;;;;;;7366171;19;20069;-66
2023/09/04 12:56:55;;;;;;;4.72;2.10;;;;;;;;;;7366374;19;20010;-66
2023/09/04 12:59:21;;;;;;;3.65;2.10;;;;;;;;;;7367291;19;20046;-66
2023/09/04 13:01:46;;;;;;;4.57;2.00;;;;;;;;;;7390554;19;20077;-65
2023/09/04 13:04:11;;;;;;;3.78;1.92;;;;;;;;;;7366368;19;20050;-65
2023/09/04 13:06:36;;;;;;;5.53;2.15;;;;;;;;;;7367560;19;20014;-66
2023/09/04 13:09:02;;;;;;;3.70;1.90;;;;;;;;;;7368203;19;20475;-66
2023/09/04 13:11:28;;;;;;;3.83;1.98;;;;;;;;;;7368274;19;20274;-66
2023/09/04 13:13:53;;;;;;;5.07;2.10;;;;;;;;;;7389839;19;20045;-65
2023/09/04 13:16:18;;;;;;;3.95;2.20;;;;;;;;;;7367765;19;20014;-65
2023/09/04 13:18:44;;;;;;;4.13;1.90;;;;;;;;;;7369128;19;20778;-65
2023/09/04 13:21:10;;;;;;;4.75;2.00;;;;;;;;;;7367404;19;20010;-64
2023/09/04 13:23:36;;;;;;;3.67;2.10;;;;;;;;;;7367597;19;20007;-65
2023/09/04 13:26:01;;;;;;;3.80;1.92;;;;;;;;;;7389866;19;20010;-66
2023/09/04 13:28:26;;;;;;;3.50;1.90;;;;;;;;;;7368074;19;20558;-65
2023/09/04 13:30:52;;;;;;;3.55;1.98;;;;;;;;;;7369258;19;20015;-65
2023/09/04 13:33:17;;;;;;;2.95;1.98;;;;;;;;;;7370776;19;20571;-65
2023/09/04 13:35:42;;;;;;;3.03;1.90;;;;;;;;;;7366786;19;20006;-65
2023/09/04 13:38:08;;;;;;;4.53;2.28;;;;;;;;;;7366181;19;19999;-67
2023/09/04 13:40:36;;;;;;;4.03;1.85;;;;;;;;;;7388485;19;20003;-69
2023/09/04 13:43:01;;;;;;;5.13;2.03;;;;;;;;;;7366753;19;20478;-66
2023/09/04 13:45:27;;;;;;;2.80;1.75;;;;;;;;;;7363920;19;20007;-65
2023/09/04 13:47:52;;;;;;;2.88;1.70;;;;;;;;;;7366474;19;20145;-67
2023/09/04 13:50:17;;;;;;;5.07;2.00;;;;;;;;;;7366125;19;20002;-66
2023/09/04 13:52:43;;;;;;;4.03;2.08;;;;;;;;;;7387341;19;20005;-65
2023/09/04 13:55:09;;;;;;;2.65;1.75;;;;;;;;;;7361790;19;20036;-65
2023/09/04 13:57:34;;;;;;;3.55;2.00;;;;;;;;;;7364647;19;20520;-64
2023/09/04 13:59:59;;;;;;;6.03;2.33;;;;;;;;;;7364378;19;20035;-65
2023/09/04 14:02:25;;;;;;;2.90;1.80;;;;;;;;;;7362821;19;20395;-65
2023/09/04 14:04:50;;;;;;;3.28;2.00;;;;;;;;;;7382112;19;20078;-65
2023/09/04 14:07:15;;;;;;;4.70;2.30;;;;;;;;;;7362883;19;20014;-66
2023/09/04 14:09:41;;;;;;;3.47;1.98;;;;;;;;;;7363624;19;20477;-66
2023/09/04 14:12:09;;;;;;;3.75;1.83;;;;;;;;;;7364019;19;20006;-66
2023/09/04 14:14:34;;;;;;;3.55;2.00;;;;;;;;;;7368303;19;20018;-66
2023/09/04 14:16:59;;;;;;;4.32;2.40;;;;;;;;;;7385625;19;19999;-66
2023/09/04 14:19:25;;;;;;;4.95;2.05;;;;;;;;;;7365030;19;20029;-66
2023/09/04 14:21:50;;;;;;;4.30;2.13;;;;;;;;;;7367453;19;20101;-65
2023/09/04 14:24:16;;;;;;;5.70;2.00;;;;;;;;;;7365782;19;20016;-66
2023/09/04 14:26:42;;;;;;;4.90;2.10;;;;;;;;;;7366156;19;20469;-65
2023/09/04 14:29:07;;;;;;;4.40;2.00;;;;;;;;;;7365468;19;20125;-67
2023/09/04 14:31:32;;;;;;;4.05;2.30;;;;;;;;;;7387980;19;20078;-66
2023/09/04 14:33:58;;;;;;;4.25;2.10;;;;;;;;;;7364125;19;20097;-65
2023/09/04 14:36:23;;;;;;;3.33;2.00;;;;;;;;;;7366900;19;20020;-65
2023/09/04 14:38:51;;;;;;;4.20;1.95;;;;;;;;;;7369255;19;20006;-65